< < Back
Terminal Aerodrome Forecast


Current Version              Previous Versions:   1  2  3  4  5  6  7  8  9  

Terminal Aerodrome Forecast

160
FTUS42 KTAE 241720
TAFVLD
TAF
KVLD 241720Z 2418/2518 07007KT P6SM SCT040=

Latest METAR

573
SAUS70 KWBC 242300 RRJ
MTRVLD
METAR KVLD 242253Z 04006KT 10SM CLR 32/21 A3011 RMK AO2 SLP203
T03170211


USA.gov is the U.S. government's official web portal to all federal, state and local government web resources and services.